sensor_id;sensor_type;location;lat;lon;timestamp;P1;durP1;ratioP1;P2;durP2;ratioP2
76296;SDS011;65104;52.994;6.552;2023-04-03T00:01:18;1.00;;;0.73;;
76296;SDS011;65104;52.994;6.552;2023-04-03T00:03:44;2.97;;;0.95;;
76296;SDS011;65104;52.994;6.552;2023-04-03T00:06:09;2.40;;;0.80;;
76296;SDS011;65104;52.994;6.552;2023-04-03T00:08:37;2.00;;;0.70;;
76296;SDS011;65104;52.994;6.552;2023-04-03T00:11:03;1.02;;;0.80;;
76296;SDS011;65104;52.994;6.552;2023-04-03T00:13:29;1.27;;;0.70;;
76296;SDS011;65104;52.994;6.552;2023-04-03T00:15:55;2.72;;;0.77;;
76296;SDS011;65104;52.994;6.552;2023-04-03T00:18:20;1.00;;;0.75;;
76296;SDS011;65104;52.994;6.552;2023-04-03T00:20:46;1.50;;;0.60;;
76296;SDS011;65104;52.994;6.552;2023-04-03T00:23:11;1.35;;;0.80;;
76296;SDS011;65104;52.994;6.552;2023-04-03T00:25:36;0.60;;;0.60;;
76296;SDS011;65104;52.994;6.552;2023-04-03T00:28:02;1.70;;;0.85;;
76296;SDS011;65104;52.994;6.552;2023-04-03T00:30:29;0.70;;;0.63;;
76296;SDS011;65104;52.994;6.552;2023-04-03T00:32:54;1.33;;;0.80;;
76296;SDS011;65104;52.994;6.552;2023-04-03T00:35:20;2.55;;;0.70;;
76296;SDS011;65104;52.994;6.552;2023-04-03T00:37:46;1.95;;;0.77;;
76296;SDS011;65104;52.994;6.552;2023-04-03T00:40:13;1.20;;;0.70;;
76296;SDS011;65104;52.994;6.552;2023-04-03T00:42:40;1.95;;;0.50;;
76296;SDS011;65104;52.994;6.552;2023-04-03T00:45:26;0.88;;;0.52;;
76296;SDS011;65104;52.994;6.552;2023-04-03T00:47:52;1.38;;;0.77;;
76296;SDS011;65104;52.994;6.552;2023-04-03T00:50:18;1.20;;;0.80;;
76296;SDS011;65104;52.994;6.552;2023-04-03T00:52:43;1.20;;;0.60;;
76296;SDS011;65104;52.994;6.552;2023-04-03T00:55:11;1.08;;;0.60;;
76296;SDS011;65104;52.994;6.552;2023-04-03T00:57:38;1.10;;;0.63;;
76296;SDS011;65104;52.994;6.552;2023-04-03T01:00:07;1.30;;;0.57;;
76296;SDS011;65104;52.994;6.552;2023-04-03T01:02:36;2.53;;;0.52;;
76296;SDS011;65104;52.994;6.552;2023-04-03T01:05:03;0.90;;;0.50;;
76296;SDS011;65104;52.994;6.552;2023-04-03T01:07:30;2.38;;;1.05;;
76296;SDS011;65104;52.994;6.552;2023-04-03T01:09:57;0.77;;;0.68;;
76296;SDS011;65104;52.994;6.552;2023-04-03T01:12:32;1.20;;;0.43;;
76296;SDS011;65104;52.994;6.552;2023-04-03T01:15:15;2.50;;;0.70;;
76296;SDS011;65104;52.994;6.552;2023-04-03T01:17:45;1.63;;;0.70;;
76296;SDS011;65104;52.994;6.552;2023-04-03T01:25:34;0.65;;;0.63;;
76296;SDS011;65104;52.994;6.552;2023-04-03T01:28:05;1.40;;;0.68;;
76296;SDS011;65104;52.994;6.552;2023-04-03T01:30:36;2.15;;;0.80;;
76296;SDS011;65104;52.994;6.552;2023-04-03T01:33:09;2.33;;;1.00;;
76296;SDS011;65104;52.994;6.552;2023-04-03T01:35:34;0.98;;;0.80;;
76296;SDS011;65104;52.994;6.552;2023-04-03T01:38:00;1.90;;;0.82;;
76296;SDS011;65104;52.994;6.552;2023-04-03T01:40:25;1.80;;;0.77;;
76296;SDS011;65104;52.994;6.552;2023-04-03T01:42:51;2.70;;;1.17;;
76296;SDS011;65104;52.994;6.552;2023-04-03T01:45:16;2.10;;;0.80;;
76296;SDS011;65104;52.994;6.552;2023-04-03T01:47:41;1.83;;;0.80;;
76296;SDS011;65104;52.994;6.552;2023-04-03T01:50:07;3.70;;;0.70;;
76296;SDS011;65104;52.994;6.552;2023-04-03T01:52:32;1.42;;;0.70;;
76296;SDS011;65104;52.994;6.552;2023-04-03T01:54:58;1.83;;;0.73;;
76296;SDS011;65104;52.994;6.552;2023-04-03T01:57:23;2.08;;;0.93;;
76296;SDS011;65104;52.994;6.552;2023-04-03T01:59:50;2.00;;;1.23;;
76296;SDS011;65104;52.994;6.552;2023-04-03T02:02:16;2.30;;;0.98;;
76296;SDS011;65104;52.994;6.552;2023-04-03T02:04:41;3.20;;;1.20;;
76296;SDS011;65104;52.994;6.552;2023-04-03T02:07:07;2.77;;;1.10;;
76296;SDS011;65104;52.994;6.552;2023-04-03T02:09:32;1.48;;;0.70;;
76296;SDS011;65104;52.994;6.552;2023-04-03T02:11:58;2.58;;;1.25;;
76296;SDS011;65104;52.994;6.552;2023-04-03T02:14:23;2.53;;;1.05;;
76296;SDS011;65104;52.994;6.552;2023-04-03T02:16:49;2.88;;;1.15;;
76296;SDS011;65104;52.994;6.552;2023-04-03T02:19:15;2.95;;;1.02;;
76296;SDS011;65104;52.994;6.552;2023-04-03T02:21:40;2.30;;;1.20;;
76296;SDS011;65104;52.994;6.552;2023-04-03T02:24:06;2.75;;;1.40;;
76296;SDS011;65104;52.994;6.552;2023-04-03T02:26:31;2.42;;;0.95;;
76296;SDS011;65104;52.994;6.552;2023-04-03T02:28:56;1.63;;;1.27;;
76296;SDS011;65104;52.994;6.552;2023-04-03T02:31:22;3.58;;;1.20;;
76296;SDS011;65104;52.994;6.552;2023-04-03T02:33:48;1.85;;;0.95;;
76296;SDS011;65104;52.994;6.552;2023-04-03T02:36:14;6.18;;;1.45;;
76296;SDS011;65104;52.994;6.552;2023-04-03T02:38:39;2.78;;;1.10;;
76296;SDS011;65104;52.994;6.552;2023-04-03T02:41:06;4.13;;;1.45;;
76296;SDS011;65104;52.994;6.552;2023-04-03T02:43:34;3.08;;;1.10;;
76296;SDS011;65104;52.994;6.552;2023-04-03T02:45:59;1.55;;;1.05;;
76296;SDS011;65104;52.994;6.552;2023-04-03T02:48:25;2.05;;;1.20;;
76296;SDS011;65104;52.994;6.552;2023-04-03T02:50:51;2.15;;;1.02;;
76296;SDS011;65104;52.994;6.552;2023-04-03T02:53:16;3.72;;;1.33;;
76296;SDS011;65104;52.994;6.552;2023-04-03T02:55:42;1.58;;;0.95;;
76296;SDS011;65104;52.994;6.552;2023-04-03T02:58:08;2.50;;;1.17;;
76296;SDS011;65104;52.994;6.552;2023-04-03T03:00:34;1.63;;;1.20;;
76296;SDS011;65104;52.994;6.552;2023-04-03T03:03:00;2.75;;;1.00;;
76296;SDS011;65104;52.994;6.552;2023-04-03T03:05:26;2.30;;;1.38;;
76296;SDS011;65104;52.994;6.552;2023-04-03T03:07:52;1.63;;;0.90;;
76296;SDS011;65104;52.994;6.552;2023-04-03T03:10:17;3.38;;;1.50;;
76296;SDS011;65104;52.994;6.552;2023-04-03T03:12:43;2.88;;;1.10;;
76296;SDS011;65104;52.994;6.552;2023-04-03T03:15:08;1.33;;;1.08;;
76296;SDS011;65104;52.994;6.552;2023-04-03T03:17:34;0.75;;;0.65;;
76296;SDS011;65104;52.994;6.552;2023-04-03T03:20:01;2.42;;;0.95;;
76296;SDS011;65104;52.994;6.552;2023-04-03T03:22:27;2.35;;;0.73;;
76296;SDS011;65104;52.994;6.552;2023-04-03T03:24:53;2.03;;;0.98;;
76296;SDS011;65104;52.994;6.552;2023-04-03T03:27:18;2.00;;;1.30;;
76296;SDS011;65104;52.994;6.552;2023-04-03T03:29:44;2.28;;;1.30;;
76296;SDS011;65104;52.994;6.552;2023-04-03T03:32:10;1.77;;;0.90;;
76296;SDS011;65104;52.994;6.552;2023-04-03T03:34:35;3.55;;;1.25;;
76296;SDS011;65104;52.994;6.552;2023-04-03T03:37:00;2.28;;;1.45;;
76296;SDS011;65104;52.994;6.552;2023-04-03T03:39:26;2.88;;;0.88;;
76296;SDS011;65104;52.994;6.552;2023-04-03T03:41:51;4.57;;;1.80;;
76296;SDS011;65104;52.994;6.552;2023-04-03T03:44:18;2.58;;;1.13;;
76296;SDS011;65104;52.994;6.552;2023-04-03T03:46:44;1.83;;;1.20;;
76296;SDS011;65104;52.994;6.552;2023-04-03T03:49:10;2.47;;;1.52;;
76296;SDS011;65104;52.994;6.552;2023-04-03T03:51:36;1.70;;;0.90;;
76296;SDS011;65104;52.994;6.552;2023-04-03T03:54:02;1.45;;;0.90;;
76296;SDS011;65104;52.994;6.552;2023-04-03T03:56:28;3.47;;;1.23;;
76296;SDS011;65104;52.994;6.552;2023-04-03T03:58:54;4.00;;;1.38;;
76296;SDS011;65104;52.994;6.552;2023-04-03T04:01:21;4.50;;;3.17;;
76296;SDS011;65104;52.994;6.552;2023-04-03T04:03:47;4.82;;;1.20;;
76296;SDS011;65104;52.994;6.552;2023-04-03T04:06:12;2.60;;;1.55;;
76296;SDS011;65104;52.994;6.552;2023-04-03T04:08:38;3.25;;;1.30;;
76296;SDS011;65104;52.994;6.552;2023-04-03T04:11:04;1.95;;;1.10;;
76296;SDS011;65104;52.994;6.552;2023-04-03T04:13:29;3.42;;;1.35;;
76296;SDS011;65104;52.994;6.552;2023-04-03T04:15:55;4.40;;;1.38;;
76296;SDS011;65104;52.994;6.552;2023-04-03T04:18:20;3.05;;;1.48;;
76296;SDS011;65104;52.994;6.552;2023-04-03T04:20:46;3.50;;;1.30;;
76296;SDS011;65104;52.994;6.552;2023-04-03T04:23:11;2.35;;;1.67;;
76296;SDS011;65104;52.994;6.552;2023-04-03T04:25:37;3.03;;;1.50;;
76296;SDS011;65104;52.994;6.552;2023-04-03T04:28:02;3.67;;;1.45;;
76296;SDS011;65104;52.994;6.552;2023-04-03T04:30:27;2.45;;;1.10;;
76296;SDS011;65104;52.994;6.552;2023-04-03T04:32:53;5.28;;;2.10;;
76296;SDS011;65104;52.994;6.552;2023-04-03T04:35:18;4.47;;;1.63;;
76296;SDS011;65104;52.994;6.552;2023-04-03T04:37:43;3.53;;;1.42;;
76296;SDS011;65104;52.994;6.552;2023-04-03T04:40:09;3.05;;;1.23;;
76296;SDS011;65104;52.994;6.552;2023-04-03T04:42:35;4.93;;;1.58;;
76296;SDS011;65104;52.994;6.552;2023-04-03T04:45:00;3.25;;;1.90;;
76296;SDS011;65104;52.994;6.552;2023-04-03T04:47:27;4.07;;;1.77;;
76296;SDS011;65104;52.994;6.552;2023-04-03T04:49:53;3.55;;;1.67;;
76296;SDS011;65104;52.994;6.552;2023-04-03T04:52:18;3.95;;;1.63;;
76296;SDS011;65104;52.994;6.552;2023-04-03T04:54:45;4.78;;;1.80;;
76296;SDS011;65104;52.994;6.552;2023-04-03T04:57:10;4.63;;;1.95;;
76296;SDS011;65104;52.994;6.552;2023-04-03T04:59:35;3.60;;;1.77;;
76296;SDS011;65104;52.994;6.552;2023-04-03T05:02:01;3.50;;;1.90;;
76296;SDS011;65104;52.994;6.552;2023-04-03T05:04:26;5.22;;;1.75;;
76296;SDS011;65104;52.994;6.552;2023-04-03T05:06:52;4.68;;;2.10;;
76296;SDS011;65104;52.994;6.552;2023-04-03T05:09:17;3.10;;;1.50;;
76296;SDS011;65104;52.994;6.552;2023-04-03T05:11:43;1.83;;;1.52;;
76296;SDS011;65104;52.994;6.552;2023-04-03T05:14:08;2.05;;;1.50;;
76296;SDS011;65104;52.994;6.552;2023-04-03T05:16:33;3.80;;;1.63;;
76296;SDS011;65104;52.994;6.552;2023-04-03T05:18:59;1.90;;;1.33;;
76296;SDS011;65104;52.994;6.552;2023-04-03T05:21:25;3.80;;;2.38;;
76296;SDS011;65104;52.994;6.552;2023-04-03T05:23:51;2.35;;;1.40;;
76296;SDS011;65104;52.994;6.552;2023-04-03T05:26:16;2.10;;;1.90;;
76296;SDS011;65104;52.994;6.552;2023-04-03T05:28:42;2.22;;;1.60;;
76296;SDS011;65104;52.994;6.552;2023-04-03T05:31:07;2.22;;;1.55;;
76296;SDS011;65104;52.994;6.552;2023-04-03T05:33:33;9.68;;;2.15;;
76296;SDS011;65104;52.994;6.552;2023-04-03T05:36:02;2.13;;;1.92;;
76296;SDS011;65104;52.994;6.552;2023-04-03T05:38:28;3.45;;;1.67;;
76296;SDS011;65104;52.994;6.552;2023-04-03T05:40:54;2.47;;;1.63;;
76296;SDS011;65104;52.994;6.552;2023-04-03T05:43:19;5.38;;;1.90;;
76296;SDS011;65104;52.994;6.552;2023-04-03T05:45:46;3.17;;;1.70;;
76296;SDS011;65104;52.994;6.552;2023-04-03T05:48:12;5.25;;;2.03;;
76296;SDS011;65104;52.994;6.552;2023-04-03T05:50:37;1.95;;;1.63;;
76296;SDS011;65104;52.994;6.552;2023-04-03T05:53:06;3.83;;;1.88;;
76296;SDS011;65104;52.994;6.552;2023-04-03T05:55:34;5.20;;;2.08;;
76296;SDS011;65104;52.994;6.552;2023-04-03T05:57:59;3.53;;;2.15;;
76296;SDS011;65104;52.994;6.552;2023-04-03T06:00:24;3.37;;;2.23;;
76296;SDS011;65104;52.994;6.552;2023-04-03T06:02:50;7.53;;;2.70;;
76296;SDS011;65104;52.994;6.552;2023-04-03T06:05:15;5.03;;;2.33;;
76296;SDS011;65104;52.994;6.552;2023-04-03T06:07:41;6.13;;;2.60;;
76296;SDS011;65104;52.994;6.552;2023-04-03T06:10:06;4.50;;;1.98;;
76296;SDS011;65104;52.994;6.552;2023-04-03T06:12:33;3.90;;;2.08;;
76296;SDS011;65104;52.994;6.552;2023-04-03T06:14:59;2.67;;;2.05;;
76296;SDS011;65104;52.994;6.552;2023-04-03T06:17:24;3.85;;;2.30;;
76296;SDS011;65104;52.994;6.552;2023-04-03T06:19:50;3.92;;;2.55;;
76296;SDS011;65104;52.994;6.552;2023-04-03T06:22:15;3.67;;;2.30;;
76296;SDS011;65104;52.994;6.552;2023-04-03T06:24:41;4.93;;;2.15;;
76296;SDS011;65104;52.994;6.552;2023-04-03T06:27:06;3.47;;;2.13;;
76296;SDS011;65104;52.994;6.552;2023-04-03T06:29:32;5.22;;;2.30;;
76296;SDS011;65104;52.994;6.552;2023-04-03T06:31:57;3.78;;;2.15;;
76296;SDS011;65104;52.994;6.552;2023-04-03T06:34:23;2.85;;;2.25;;
76296;SDS011;65104;52.994;6.552;2023-04-03T06:36:48;3.33;;;2.13;;
76296;SDS011;65104;52.994;6.552;2023-04-03T06:39:16;5.45;;;2.47;;
76296;SDS011;65104;52.994;6.552;2023-04-03T06:41:45;7.45;;;2.33;;
76296;SDS011;65104;52.994;6.552;2023-04-03T06:44:10;7.28;;;2.63;;
76296;SDS011;65104;52.994;6.552;2023-04-03T06:46:37;4.45;;;2.10;;
76296;SDS011;65104;52.994;6.552;2023-04-03T06:49:03;4.47;;;2.28;;
76296;SDS011;65104;52.994;6.552;2023-04-03T06:51:32;3.55;;;1.98;;
76296;SDS011;65104;52.994;6.552;2023-04-03T06:53:58;4.00;;;2.33;;
76296;SDS011;65104;52.994;6.552;2023-04-03T06:56:24;4.00;;;2.15;;
76296;SDS011;65104;52.994;6.552;2023-04-03T06:58:52;3.80;;;1.83;;
76296;SDS011;65104;52.994;6.552;2023-04-03T07:01:23;3.30;;;1.70;;
76296;SDS011;65104;52.994;6.552;2023-04-03T07:03:52;2.78;;;2.10;;
76296;SDS011;65104;52.994;6.552;2023-04-03T07:06:18;2.05;;;1.85;;
76296;SDS011;65104;52.994;6.552;2023-04-03T07:08:44;1.90;;;1.58;;
76296;SDS011;65104;52.994;6.552;2023-04-03T07:11:10;3.22;;;1.73;;
76296;SDS011;65104;52.994;6.552;2023-04-03T07:13:37;4.10;;;1.63;;
76296;SDS011;65104;52.994;6.552;2023-04-03T07:16:03;3.63;;;2.00;;
76296;SDS011;65104;52.994;6.552;2023-04-03T07:18:30;3.03;;;1.63;;
76296;SDS011;65104;52.994;6.552;2023-04-03T07:20:57;2.85;;;1.50;;
76296;SDS011;65104;52.994;6.552;2023-04-03T07:23:22;3.92;;;1.63;;
76296;SDS011;65104;52.994;6.552;2023-04-03T07:25:49;2.03;;;1.60;;
76296;SDS011;65104;52.994;6.552;2023-04-03T07:28:15;3.97;;;1.70;;
76296;SDS011;65104;52.994;6.552;2023-04-03T07:30:45;4.00;;;1.27;;
76296;SDS011;65104;52.994;6.552;2023-04-03T07:33:13;3.63;;;1.35;;
76296;SDS011;65104;52.994;6.552;2023-04-03T07:35:40;4.10;;;1.30;;
76296;SDS011;65104;52.994;6.552;2023-04-03T07:38:06;3.33;;;1.27;;
76296;SDS011;65104;52.994;6.552;2023-04-03T07:40:32;1.77;;;1.52;;
76296;SDS011;65104;52.994;6.552;2023-04-03T07:42:57;4.47;;;1.40;;
76296;SDS011;65104;52.994;6.552;2023-04-03T07:45:23;4.00;;;1.67;;
76296;SDS011;65104;52.994;6.552;2023-04-03T07:47:49;3.45;;;1.30;;
76296;SDS011;65104;52.994;6.552;2023-04-03T07:50:15;3.33;;;1.50;;
76296;SDS011;65104;52.994;6.552;2023-04-03T07:52:41;2.60;;;2.05;;
76296;SDS011;65104;52.994;6.552;2023-04-03T07:55:07;1.70;;;1.27;;
76296;SDS011;65104;52.994;6.552;2023-04-03T07:57:32;2.08;;;1.00;;
76296;SDS011;65104;52.994;6.552;2023-04-03T07:59:58;2.25;;;1.33;;
76296;SDS011;65104;52.994;6.552;2023-04-03T08:02:23;3.35;;;1.58;;
76296;SDS011;65104;52.994;6.552;2023-04-03T08:04:48;3.20;;;0.75;;
76296;SDS011;65104;52.994;6.552;2023-04-03T08:07:14;4.25;;;1.27;;
76296;SDS011;65104;52.994;6.552;2023-04-03T08:09:40;2.17;;;1.05;;
76296;SDS011;65104;52.994;6.552;2023-04-03T08:12:05;1.90;;;1.00;;
76296;SDS011;65104;52.994;6.552;2023-04-03T08:14:31;1.40;;;0.90;;
76296;SDS011;65104;52.994;6.552;2023-04-03T08:16:59;1.50;;;1.10;;
76296;SDS011;65104;52.994;6.552;2023-04-03T08:19:25;1.60;;;0.90;;
76296;SDS011;65104;52.994;6.552;2023-04-03T08:21:51;2.40;;;1.27;;
76296;SDS011;65104;52.994;6.552;2023-04-03T08:24:16;2.13;;;1.05;;
76296;SDS011;65104;52.994;6.552;2023-04-03T08:26:41;1.40;;;0.95;;
76296;SDS011;65104;52.994;6.552;2023-04-03T08:29:07;1.55;;;1.13;;
76296;SDS011;65104;52.994;6.552;2023-04-03T08:31:32;2.60;;;1.13;;
76296;SDS011;65104;52.994;6.552;2023-04-03T08:33:58;1.05;;;0.85;;
76296;SDS011;65104;52.994;6.552;2023-04-03T08:36:25;2.17;;;1.05;;
76296;SDS011;65104;52.994;6.552;2023-04-03T08:38:52;1.60;;;1.10;;
76296;SDS011;65104;52.994;6.552;2023-04-03T08:54:53;2.15;;;0.90;;
76296;SDS011;65104;52.994;6.552;2023-04-03T08:57:13;1.58;;;0.70;;
76296;SDS011;65104;52.994;6.552;2023-04-03T08:59:39;2.47;;;0.75;;
76296;SDS011;65104;52.994;6.552;2023-04-03T09:05:14;1.73;;;0.77;;
76296;SDS011;65104;52.994;6.552;2023-04-03T09:07:43;2.15;;;0.70;;
76296;SDS011;65104;52.994;6.552;2023-04-03T09:10:13;1.95;;;0.60;;
76296;SDS011;65104;52.994;6.552;2023-04-03T09:12:44;1.55;;;0.50;;
76296;SDS011;65104;52.994;6.552;2023-04-03T09:15:17;1.70;;;1.02;;
76296;SDS011;65104;52.994;6.552;2023-04-03T09:17:56;2.20;;;0.75;;
76296;SDS011;65104;52.994;6.552;2023-04-03T09:23:51;1.98;;;0.60;;
76296;SDS011;65104;52.994;6.552;2023-04-03T09:27:21;1.73;;;0.85;;
76296;SDS011;65104;52.994;6.552;2023-04-03T09:29:21;2.20;;;0.88;;
76296;SDS011;65104;52.994;6.552;2023-04-03T09:31:49;4.90;;;0.98;;
76296;SDS011;65104;52.994;6.552;2023-04-03T09:34:21;1.35;;;0.70;;
76296;SDS011;65104;52.994;6.552;2023-04-03T09:36:50;1.98;;;0.80;;
76296;SDS011;65104;52.994;6.552;2023-04-03T09:39:18;0.65;;;0.60;;
76296;SDS011;65104;52.994;6.552;2023-04-03T09:52:37;2.22;;;0.65;;
76296;SDS011;65104;52.994;6.552;2023-04-03T09:55:19;1.90;;;0.77;;
76296;SDS011;65104;52.994;6.552;2023-04-03T09:57:52;0.77;;;0.38;;
76296;SDS011;65104;52.994;6.552;2023-04-03T10:00:30;1.88;;;0.80;;
76296;SDS011;65104;52.994;6.552;2023-04-03T10:02:59;1.63;;;0.50;;
76296;SDS011;65104;52.994;6.552;2023-04-03T10:05:26;0.77;;;0.60;;
76296;SDS011;65104;52.994;6.552;2023-04-03T10:13:25;2.28;;;0.68;;
76296;SDS011;65104;52.994;6.552;2023-04-03T10:15:55;1.80;;;0.52;;
76296;SDS011;65104;52.994;6.552;2023-04-03T10:18:37;1.50;;;0.50;;
76296;SDS011;65104;52.994;6.552;2023-04-03T10:21:13;1.15;;;0.43;;
76296;SDS011;65104;52.994;6.552;2023-04-03T10:24:06;1.00;;;0.40;;
76296;SDS011;65104;52.994;6.552;2023-04-03T10:34:53;0.47;;;0.40;;
76296;SDS011;65104;52.994;6.552;2023-04-03T10:37:25;1.25;;;0.40;;
76296;SDS011;65104;52.994;6.552;2023-04-03T10:40:02;0.75;;;0.50;;
76296;SDS011;65104;52.994;6.552;2023-04-03T10:43:29;1.00;;;0.35;;
76296;SDS011;65104;52.994;6.552;2023-04-03T10:45:53;4.47;;;0.68;;
76296;SDS011;65104;52.994;6.552;2023-04-03T10:56:32;2.55;;;0.85;;
76296;SDS011;65104;52.994;6.552;2023-04-03T11:01:42;1.88;;;0.60;;
76296;SDS011;65104;52.994;6.552;2023-04-03T11:04:11;1.55;;;0.52;;
76296;SDS011;65104;52.994;6.552;2023-04-03T11:06:39;2.15;;;0.60;;
76296;SDS011;65104;52.994;6.552;2023-04-03T11:09:18;1.48;;;0.73;;
76296;SDS011;65104;52.994;6.552;2023-04-03T11:11:44;2.55;;;0.95;;
76296;SDS011;65104;52.994;6.552;2023-04-03T11:14:29;1.05;;;0.73;;
76296;SDS011;65104;52.994;6.552;2023-04-03T11:17:18;1.20;;;0.52;;
76296;SDS011;65104;52.994;6.552;2023-04-03T11:23:06;2.40;;;0.70;;
76296;SDS011;65104;52.994;6.552;2023-04-03T11:25:44;2.13;;;0.70;;
76296;SDS011;65104;52.994;6.552;2023-04-03T11:28:14;1.48;;;1.08;;
76296;SDS011;65104;52.994;6.552;2023-04-03T11:30:43;0.65;;;0.60;;
76296;SDS011;65104;52.994;6.552;2023-04-03T11:35:58;2.45;;;0.80;;
76296;SDS011;65104;52.994;6.552;2023-04-03T11:38:30;1.88;;;0.77;;
76296;SDS011;65104;52.994;6.552;2023-04-03T11:41:01;0.95;;;0.70;;
76296;SDS011;65104;52.994;6.552;2023-04-03T11:43:30;2.33;;;1.42;;
76296;SDS011;65104;52.994;6.552;2023-04-03T11:51:02;1.60;;;0.60;;
76296;SDS011;65104;52.994;6.552;2023-04-03T11:53:48;0.57;;;0.50;;
76296;SDS011;65104;52.994;6.552;2023-04-03T11:59:15;1.25;;;0.80;;
76296;SDS011;65104;52.994;6.552;2023-04-03T12:04:22;1.65;;;0.60;;
76296;SDS011;65104;52.994;6.552;2023-04-03T12:06:54;1.80;;;0.70;;
76296;SDS011;65104;52.994;6.552;2023-04-03T12:11:57;1.00;;;0.82;;
76296;SDS011;65104;52.994;6.552;2023-04-03T12:14:25;1.42;;;0.70;;
76296;SDS011;65104;52.994;6.552;2023-04-03T12:16:53;1.30;;;0.82;;
76296;SDS011;65104;52.994;6.552;2023-04-03T12:19:37;1.95;;;1.02;;
76296;SDS011;65104;52.994;6.552;2023-04-03T12:22:15;0.70;;;0.70;;
76296;SDS011;65104;52.994;6.552;2023-04-03T12:24:44;2.17;;;1.10;;
76296;SDS011;65104;52.994;6.552;2023-04-03T12:29:54;1.05;;;0.70;;
76296;SDS011;65104;52.994;6.552;2023-04-03T12:46:21;1.55;;;1.02;;
76296;SDS011;65104;52.994;6.552;2023-04-03T12:48:49;1.17;;;0.90;;
76296;SDS011;65104;52.994;6.552;2023-04-03T12:51:22;2.85;;;1.00;;
76296;SDS011;65104;52.994;6.552;2023-04-03T12:53:54;2.25;;;0.77;;
76296;SDS011;65104;52.994;6.552;2023-04-03T12:56:29;1.60;;;1.08;;
76296;SDS011;65104;52.994;6.552;2023-04-03T13:01:55;2.83;;;0.90;;
76296;SDS011;65104;52.994;6.552;2023-04-03T13:04:22;1.92;;;0.82;;
76296;SDS011;65104;52.994;6.552;2023-04-03T13:06:47;1.58;;;0.70;;
76296;SDS011;65104;52.994;6.552;2023-04-03T13:09:20;1.70;;;1.08;;
76296;SDS011;65104;52.994;6.552;2023-04-03T13:11:54;1.52;;;0.70;;
76296;SDS011;65104;52.994;6.552;2023-04-03T13:14:25;1.25;;;0.90;;
76296;SDS011;65104;52.994;6.552;2023-04-03T13:19:28;1.85;;;1.00;;
76296;SDS011;65104;52.994;6.552;2023-04-03T13:21:57;1.38;;;1.00;;
76296;SDS011;65104;52.994;6.552;2023-04-03T13:24:26;1.95;;;1.15;;
76296;SDS011;65104;52.994;6.552;2023-04-03T13:26:54;2.08;;;0.90;;
76296;SDS011;65104;52.994;6.552;2023-04-03T13:29:26;1.60;;;1.08;;
76296;SDS011;65104;52.994;6.552;2023-04-03T13:31:54;2.28;;;1.20;;
76296;SDS011;65104;52.994;6.552;2023-04-03T13:34:21;1.75;;;0.82;;
76296;SDS011;65104;52.994;6.552;2023-04-03T13:39:21;5.88;;;1.20;;
76296;SDS011;65104;52.994;6.552;2023-04-03T13:41:51;1.42;;;0.90;;
76296;SDS011;65104;52.994;6.552;2023-04-03T13:46:50;2.17;;;1.00;;
76296;SDS011;65104;52.994;6.552;2023-04-03T13:49:21;2.72;;;1.30;;
76296;SDS011;65104;52.994;6.552;2023-04-03T13:51:53;2.08;;;1.10;;
76296;SDS011;65104;52.994;6.552;2023-04-03T13:54:38;1.52;;;1.17;;
76296;SDS011;65104;52.994;6.552;2023-04-03T13:57:11;1.45;;;1.00;;
76296;SDS011;65104;52.994;6.552;2023-04-03T13:59:39;5.47;;;1.63;;
76296;SDS011;65104;52.994;6.552;2023-04-03T14:07:02;1.90;;;1.05;;
76296;SDS011;65104;52.994;6.552;2023-04-03T14:09:28;2.20;;;1.00;;
76296;SDS011;65104;52.994;6.552;2023-04-03T14:11:59;1.98;;;0.90;;
76296;SDS011;65104;52.994;6.552;2023-04-03T14:14:30;2.47;;;1.00;;
76296;SDS011;65104;52.994;6.552;2023-04-03T14:17:00;1.85;;;1.00;;
76296;SDS011;65104;52.994;6.552;2023-04-03T14:19:32;4.00;;;1.13;;
76296;SDS011;65104;52.994;6.552;2023-04-03T14:21:59;2.63;;;1.13;;
76296;SDS011;65104;52.994;6.552;2023-04-03T14:24:26;2.13;;;1.05;;
76296;SDS011;65104;52.994;6.552;2023-04-03T14:26:53;2.13;;;1.00;;
76296;SDS011;65104;52.994;6.552;2023-04-03T14:29:21;1.20;;;0.90;;
76296;SDS011;65104;52.994;6.552;2023-04-03T14:31:48;1.27;;;0.95;;
76296;SDS011;65104;52.994;6.552;2023-04-03T14:34:14;1.63;;;0.80;;
76296;SDS011;65104;52.994;6.552;2023-04-03T14:36:41;3.35;;;1.00;;
76296;SDS011;65104;52.994;6.552;2023-04-03T14:41:36;1.90;;;1.00;;
76296;SDS011;65104;52.994;6.552;2023-04-03T14:44:01;1.70;;;0.85;;
76296;SDS011;65104;52.994;6.552;2023-04-03T14:46:45;1.45;;;0.73;;
76296;SDS011;65104;52.994;6.552;2023-04-03T14:49:18;2.90;;;1.23;;
76296;SDS011;65104;52.994;6.552;2023-04-03T14:51:46;1.40;;;0.88;;
76296;SDS011;65104;52.994;6.552;2023-04-03T14:54:13;2.33;;;1.15;;
76296;SDS011;65104;52.994;6.552;2023-04-03T14:56:41;3.38;;;0.95;;
76296;SDS011;65104;52.994;6.552;2023-04-03T14:59:10;1.20;;;0.90;;
76296;SDS011;65104;52.994;6.552;2023-04-03T15:01:37;1.35;;;0.50;;
76296;SDS011;65104;52.994;6.552;2023-04-03T15:04:12;1.48;;;1.25;;
76296;SDS011;65104;52.994;6.552;2023-04-03T15:06:39;2.58;;;1.10;;
76296;SDS011;65104;52.994;6.552;2023-04-03T15:09:08;2.17;;;1.10;;
76296;SDS011;65104;52.994;6.552;2023-04-03T15:11:43;0.82;;;0.70;;
76296;SDS011;65104;52.994;6.552;2023-04-03T15:14:09;1.50;;;0.73;;
76296;SDS011;65104;52.994;6.552;2023-04-03T15:16:35;2.25;;;0.90;;
76296;SDS011;65104;52.994;6.552;2023-04-03T15:19:00;1.20;;;0.52;;
76296;SDS011;65104;52.994;6.552;2023-04-03T15:21:26;1.42;;;0.63;;
76296;SDS011;65104;52.994;6.552;2023-04-03T15:23:51;3.33;;;1.00;;
76296;SDS011;65104;52.994;6.552;2023-04-03T15:26:17;2.05;;;0.80;;
76296;SDS011;65104;52.994;6.552;2023-04-03T15:28:42;0.90;;;0.70;;
76296;SDS011;65104;52.994;6.552;2023-04-03T15:31:09;1.77;;;0.60;;
76296;SDS011;65104;52.994;6.552;2023-04-03T15:33:35;0.82;;;0.70;;
76296;SDS011;65104;52.994;6.552;2023-04-03T15:36:01;1.35;;;0.70;;
76296;SDS011;65104;52.994;6.552;2023-04-03T15:38:28;0.80;;;0.70;;
76296;SDS011;65104;52.994;6.552;2023-04-03T15:40:54;1.40;;;0.70;;
76296;SDS011;65104;52.994;6.552;2023-04-03T15:43:20;0.90;;;0.70;;
76296;SDS011;65104;52.994;6.552;2023-04-03T15:45:45;1.85;;;0.95;;
76296;SDS011;65104;52.994;6.552;2023-04-03T15:48:11;1.45;;;0.63;;
76296;SDS011;65104;52.994;6.552;2023-04-03T15:50:37;2.08;;;1.15;;
76296;SDS011;65104;52.994;6.552;2023-04-03T15:53:04;0.85;;;0.60;;
76296;SDS011;65104;52.994;6.552;2023-04-03T15:55:31;0.90;;;0.70;;
76296;SDS011;65104;52.994;6.552;2023-04-03T15:57:58;2.17;;;0.60;;
76296;SDS011;65104;52.994;6.552;2023-04-03T16:00:24;1.25;;;0.90;;
76296;SDS011;65104;52.994;6.552;2023-04-03T16:02:52;2.35;;;0.70;;
76296;SDS011;65104;52.994;6.552;2023-04-03T16:05:20;1.85;;;0.60;;
76296;SDS011;65104;52.994;6.552;2023-04-03T16:07:46;1.70;;;1.00;;
76296;SDS011;65104;52.994;6.552;2023-04-03T16:10:12;1.80;;;0.90;;
76296;SDS011;65104;52.994;6.552;2023-04-03T16:12:39;1.80;;;0.80;;
76296;SDS011;65104;52.994;6.552;2023-04-03T16:15:05;1.48;;;0.80;;
76296;SDS011;65104;52.994;6.552;2023-04-03T16:17:31;2.75;;;0.60;;
76296;SDS011;65104;52.994;6.552;2023-04-03T16:19:57;1.33;;;0.90;;
76296;SDS011;65104;52.994;6.552;2023-04-03T16:22:24;1.50;;;0.90;;
76296;SDS011;65104;52.994;6.552;2023-04-03T16:24:52;3.10;;;0.82;;
76296;SDS011;65104;52.994;6.552;2023-04-03T16:27:18;2.05;;;0.90;;
76296;SDS011;65104;52.994;6.552;2023-04-03T16:29:43;3.45;;;1.08;;
76296;SDS011;65104;52.994;6.552;2023-04-03T16:32:08;2.08;;;0.82;;
76296;SDS011;65104;52.994;6.552;2023-04-03T16:34:34;1.80;;;0.90;;
76296;SDS011;65104;52.994;6.552;2023-04-03T16:37:00;1.33;;;1.10;;
76296;SDS011;65104;52.994;6.552;2023-04-03T16:39:25;3.10;;;1.92;;
76296;SDS011;65104;52.994;6.552;2023-04-03T16:41:51;1.70;;;0.82;;
76296;SDS011;65104;52.994;6.552;2023-04-03T16:44:16;2.17;;;0.98;;
76296;SDS011;65104;52.994;6.552;2023-04-03T16:46:42;2.38;;;0.80;;